createdAt,value
2018-08-24T00:00:10.951Z,99463.88
2018-08-24T00:05:14.518Z,99460.48
2018-08-24T00:10:18.111Z,99450.86
2018-08-24T00:15:21.644Z,99453.97
2018-08-24T00:20:25.248Z,99453.19
2018-08-24T00:25:28.758Z,99441.86
2018-08-24T00:30:32.255Z,99439.84
2018-08-24T00:35:35.693Z,99441.73
2018-08-24T00:40:39.345Z,99436.00
2018-08-24T00:45:42.940Z,99431.03
2018-08-24T00:50:46.369Z,99431.80
2018-08-24T00:55:50.074Z,99433.67
2018-08-24T01:00:57.831Z,99421.26
2018-08-24T01:06:01.381Z,99421.59
2018-08-24T01:11:05.241Z,99416.94
2018-08-24T01:16:08.854Z,99420.67
2018-08-24T01:21:12.369Z,99412.28
2018-08-24T01:26:20.041Z,99410.27
2018-08-24T01:31:23.781Z,99408.41
2018-08-24T01:36:27.282Z,99415.70
2018-08-24T01:41:30.730Z,99413.84
2018-08-24T01:46:34.461Z,99406.73
2018-08-24T01:51:38.146Z,99398.20
2018-08-24T01:56:41.679Z,99399.59
2018-08-24T02:01:45.229Z,99399.02
2018-08-24T02:06:48.724Z,99398.20
2018-08-24T02:11:52.748Z,99404.25
2018-08-24T02:16:56.459Z,99393.12
2018-08-24T02:22:05.505Z,99390.36
2018-08-24T02:27:09.016Z,99369.11
2018-08-24T02:32:12.809Z,99371.39
2018-08-24T02:37:16.257Z,99377.60
2018-08-24T02:42:20.185Z,99372.02
2018-08-24T02:47:23.693Z,99370.47
2018-08-24T02:52:27.239Z,99373.11
2018-08-24T02:57:31.131Z,99379.62
2018-08-24T03:02:34.754Z,99386.60
2018-08-24T03:07:38.245Z,99383.66
2018-08-24T03:12:41.887Z,99397.34
2018-08-24T03:17:50.728Z,99385.70
2018-08-24T03:22:55.204Z,99393.92
2018-08-24T03:27:58.714Z,99393.64
2018-08-24T03:33:02.261Z,99389.14
2018-08-24T03:38:06.062Z,99391.63
2018-08-24T03:43:09.562Z,99403.11
2018-08-24T03:48:13.142Z,99413.22
2018-08-24T03:53:16.751Z,99416.03
2018-08-24T03:58:20.259Z,99419.09
2018-08-24T04:03:23.765Z,99416.36
2018-08-24T04:08:27.250Z,99432.33
2018-08-24T04:13:30.738Z,99441.48
2018-08-24T04:18:34.335Z,99420.11
2018-08-24T04:23:37.841Z,99413.91
2018-08-24T04:28:41.317Z,99435.15
2018-08-24T04:33:44.801Z,99436.39
2018-08-24T04:38:48.348Z,99433.29
2018-08-24T04:43:51.809Z,99446.00
2018-08-24T04:48:55.633Z,99456.52
2018-08-24T04:53:59.438Z,99453.59
2018-08-24T04:59:03.165Z,99454.52
2018-08-24T05:04:06.989Z,99463.48
2018-08-24T05:09:11.444Z,99464.73
2018-08-24T05:14:15.161Z,99471.08
2018-08-24T05:19:18.649Z,99478.53
2018-08-24T05:24:22.273Z,99473.39
2018-08-24T05:29:25.784Z,99474.48
2018-08-24T05:34:29.530Z,99474.05
2018-08-24T05:39:33.242Z,99496.20
2018-08-24T05:44:37.810Z,99493.73
2018-08-24T05:49:41.482Z,99493.72
2018-08-24T05:54:45.042Z,99506.59
2018-08-24T05:59:48.567Z,99505.36
2018-08-24T06:04:52.249Z,99513.39
2018-08-24T06:09:55.799Z,99518.98
2018-08-24T06:14:59.360Z,99524.11
2018-08-24T06:20:03.010Z,99516.97
2018-08-24T06:25:06.731Z,99522.09
2018-08-24T06:30:10.685Z,99523.03
2018-08-24T06:35:14.484Z,99526.58
2018-08-24T06:40:18.207Z,99521.63
2018-08-24T06:45:21.657Z,99524.73
2018-08-24T06:50:25.427Z,99516.66
2018-08-24T06:55:28.998Z,99518.22
2018-08-24T07:00:33.401Z,99522.23
2018-08-24T07:05:36.866Z,99522.56
2018-08-24T07:10:40.612Z,99515.73
2018-08-24T07:15:44.107Z,99509.38
2018-08-24T07:20:47.758Z,99521.77
2018-08-24T07:25:51.787Z,99520.39
2018-08-24T07:30:55.401Z,99543.64
2018-08-24T07:35:58.916Z,99532.33
2018-08-24T07:41:02.506Z,99533.73
2018-08-24T07:46:05.985Z,99532.31
2018-08-24T07:51:09.543Z,99536.02
2018-08-24T07:56:13.386Z,99546.24
2018-08-24T08:01:17.090Z,99542.97
2018-08-24T08:06:20.942Z,99550.69
2018-08-24T08:11:24.453Z,99547.58
2018-08-24T08:16:27.952Z,99551.89
2018-08-24T08:21:32.197Z,99544.27
2018-08-24T08:26:35.749Z,99545.99
2018-08-24T08:31:39.228Z,99552.95
2018-08-24T08:36:42.947Z,99555.29
2018-08-24T08:41:46.451Z,99561.48
2018-08-24T08:46:50.179Z,99564.40
2018-08-24T08:51:53.677Z,99558.37
2018-08-24T08:56:57.166Z,99564.30
2018-08-24T09:02:00.813Z,99574.35
2018-08-24T09:07:04.412Z,99573.57
2018-08-24T09:12:08.995Z,99581.64
2018-08-24T09:17:17.588Z,99579.31
2018-08-24T09:22:26.553Z,99584.77
2018-08-24T09:27:30.350Z,99591.86
2018-08-24T09:32:34.065Z,99587.23
2018-08-24T09:37:38.593Z,99577.17
2018-08-24T09:42:42.263Z,99576.30
2018-08-24T09:47:51.002Z,99564.23
2018-08-24T09:52:59.822Z,99565.78
2018-08-24T09:58:03.402Z,99561.27
2018-08-24T10:03:12.398Z,99559.75
2018-08-24T10:08:21.220Z,99557.41
2018-08-24T10:13:24.826Z,99561.46
2018-08-24T10:18:28.252Z,99565.31
2018-08-24T10:23:31.774Z,99558.98
2018-08-24T10:28:35.270Z,99563.48
2018-08-24T10:33:38.896Z,99556.36
2018-08-24T10:38:42.361Z,99558.69
2018-08-24T10:43:45.831Z,99549.07
2018-08-24T10:48:49.365Z,99592.80
2018-08-24T10:53:52.976Z,99597.01
2018-08-24T10:58:56.978Z,99593.28
2018-08-24T11:04:00.771Z,99601.34
2018-08-24T11:09:05.416Z,99595.45
2018-08-24T11:14:09.385Z,99604.75
2018-08-24T11:19:13.129Z,99599.00
2018-08-24T11:24:17.212Z,99602.27
2018-08-24T11:29:22.333Z,99600.07
2018-08-24T11:34:26.425Z,99604.27
2018-08-24T11:39:30.513Z,99596.02
2018-08-24T11:44:34.660Z,99602.86
2018-08-24T11:49:39.048Z,99596.65
2018-08-24T11:54:43.305Z,99591.05
2018-08-24T11:59:46.821Z,99582.04
2018-08-24T12:04:52.004Z,99579.41
2018-08-24T12:09:55.697Z,99582.04
2018-08-24T12:14:59.183Z,99576.61
2018-08-24T12:20:02.823Z,99570.41
2018-08-24T12:25:06.698Z,99558.91
2018-08-24T12:30:10.153Z,99552.84
2018-08-24T12:35:13.675Z,99546.50
2018-08-24T12:40:17.511Z,99555.34
2018-08-24T12:45:21.205Z,99562.64
2018-08-24T12:50:26.987Z,99552.70
2018-08-24T12:55:31.836Z,99544.33
2018-08-24T13:00:36.247Z,99542.47
2018-08-24T13:05:41.102Z,99546.34
2018-08-24T13:10:46.070Z,99548.85
2018-08-24T13:15:49.588Z,99557.41
2018-08-24T13:20:53.715Z,99587.97
2018-08-24T13:25:57.316Z,99595.27
2018-08-24T13:31:01.204Z,99609.24
2018-08-24T13:36:04.926Z,99618.39
2018-08-24T13:41:08.492Z,99634.54
2018-08-24T13:46:16.221Z,99640.25
2018-08-24T13:51:19.977Z,99631.27
2018-08-24T13:56:23.397Z,99632.34
2018-08-24T14:01:27.105Z,99622.88
2018-08-24T14:06:31.237Z,99624.75
2018-08-24T14:11:34.714Z,99614.97
2018-08-24T14:16:38.698Z,99619.14
2018-08-24T14:21:42.601Z,99605.37
2018-08-24T14:26:46.174Z,99626.76
2018-08-24T14:31:49.749Z,99624.90
2018-08-24T14:36:53.592Z,99618.36
2018-08-24T14:41:57.392Z,99620.22
2018-08-24T14:47:01.277Z,99623.64
2018-08-24T14:52:05.058Z,99634.20
2018-08-24T14:57:08.659Z,99629.84
2018-08-24T15:02:12.121Z,99630.47
2018-08-24T15:07:16.168Z,99631.54
2018-08-24T15:12:19.932Z,99627.83
2018-08-24T15:17:23.576Z,99641.63
2018-08-24T15:22:27.863Z,99647.70
2018-08-24T15:27:31.339Z,99629.67
2018-08-24T15:32:35.156Z,99639.28
2018-08-24T15:37:38.960Z,99647.22
2018-08-24T15:42:43.918Z,99648.30
2018-08-24T15:47:47.422Z,99639.00
2018-08-24T15:52:51.388Z,99638.55
2018-08-24T15:57:55.506Z,99632.47
2018-08-24T16:02:59.883Z,99637.45
2018-08-24T16:08:03.543Z,99650.02
2018-08-24T16:13:07.298Z,99649.86
2018-08-24T16:18:16.193Z,99651.88
2018-08-24T16:23:19.779Z,99649.70
2018-08-24T16:28:23.227Z,99652.05
2018-08-24T16:33:26.689Z,99641.66
2018-08-24T16:38:30.359Z,99655.11
2018-08-24T16:43:33.854Z,99646.91
2018-08-24T16:48:37.283Z,99654.03
2018-08-24T16:53:41.427Z,99640.85
2018-08-24T16:58:45.558Z,99652.00
2018-08-24T17:03:49.227Z,99661.31
2018-08-24T17:08:52.696Z,99666.30
2018-08-24T17:13:57.502Z,99678.22
2018-08-24T17:19:01.455Z,99669.70
2018-08-24T17:24:05.210Z,99670.64
2018-08-24T17:29:08.888Z,99671.28
2018-08-24T17:34:12.612Z,99670.20
2018-08-24T17:39:16.115Z,99676.73
2018-08-24T17:44:19.652Z,99680.59
2018-08-24T17:49:23.387Z,99682.28
2018-08-24T17:54:26.967Z,99691.25
2018-08-24T17:59:30.399Z,99700.11
2018-08-24T18:04:33.833Z,99715.59
2018-08-24T18:09:37.368Z,99734.25
2018-08-24T18:14:40.933Z,99742.89
2018-08-24T18:19:44.434Z,99741.98
2018-08-24T18:24:48.042Z,99738.92
2018-08-24T18:29:52.737Z,99740.19
2018-08-24T18:34:56.807Z,99735.05
2018-08-24T18:40:00.501Z,99741.73
2018-08-24T18:45:05.717Z,99736.93
2018-08-24T18:50:09.519Z,99737.86
2018-08-24T18:55:13.097Z,99748.26
2018-08-24T19:00:16.569Z,99759.88
2018-08-24T19:05:20.667Z,99763.13
2018-08-24T19:10:24.268Z,99767.78
2018-08-24T19:15:27.744Z,99762.03
2018-08-24T19:20:36.867Z,99763.59
2018-08-24T19:25:40.677Z,99772.13
2018-08-24T19:30:44.214Z,99774.14
2018-08-24T19:35:47.684Z,99767.78
2018-08-24T19:40:56.591Z,99767.00
2018-08-24T19:46:00.449Z,99773.81
2018-08-24T19:51:03.973Z,99774.11
2018-08-24T19:56:07.656Z,99778.17
2018-08-24T20:01:11.215Z,99769.63
2018-08-24T20:06:20.060Z,99776.77
2018-08-24T20:11:23.428Z,99776.77
2018-08-24T20:16:32.266Z,99760.94
2018-08-24T20:21:35.831Z,99762.95
2018-08-24T20:26:40.066Z,99760.16
2018-08-24T20:31:43.601Z,99740.77
2018-08-24T20:36:47.216Z,99748.38
2018-08-24T20:41:50.786Z,99743.27
2018-08-24T20:46:54.204Z,99741.12
2018-08-24T20:51:58.357Z,99742.98
2018-08-24T20:57:01.944Z,99738.47
2018-08-24T21:02:05.922Z,99752.44
2018-08-24T21:07:09.774Z,99755.84
2018-08-24T21:12:13.237Z,99762.21
2018-08-24T21:17:16.689Z,99765.00
2018-08-24T21:22:20.454Z,99781.92
2018-08-24T21:27:24.178Z,99784.55
2018-08-24T21:32:27.685Z,99794.65
2018-08-24T21:37:31.553Z,99784.39
2018-08-24T21:42:35.232Z,99783.48
2018-08-24T21:47:38.736Z,99775.40
2018-08-24T21:52:42.507Z,99775.23
2018-08-24T21:57:46.024Z,99773.68
2018-08-24T22:02:49.508Z,99765.63
2018-08-24T22:07:54.719Z,99766.70
2018-08-24T22:12:58.492Z,99767.94
2018-08-24T22:18:02.564Z,99772.58
2018-08-24T22:23:06.134Z,99766.05
2018-08-24T22:28:09.960Z,99762.20
2018-08-24T22:33:13.671Z,99766.84
2018-08-24T22:38:17.401Z,99760.94
2018-08-24T22:43:26.236Z,99763.27
2018-08-24T22:48:29.882Z,99741.39
2018-08-24T22:53:33.680Z,99738.55
2018-08-24T22:58:37.207Z,99748.95
2018-08-24T23:03:40.917Z,99753.44
2018-08-24T23:08:44.600Z,99741.33
2018-08-24T23:13:48.228Z,99721.17
2018-08-24T23:18:51.756Z,99722.55
2018-08-24T23:23:55.592Z,99724.72
2018-08-24T23:28:59.496Z,99725.95
2018-08-24T23:34:03.465Z,99715.89
2018-08-24T23:39:09.418Z,99712.00
2018-08-24T23:44:13.798Z,99720.37
2018-08-24T23:49:17.469Z,99714.17
2018-08-24T23:54:21.087Z,99715.56
2018-08-24T23:59:24.585Z,99714.79
